Time;durP1;ratioP1;P1;durP2;ratioP2;P2;SDS_P1;SDS_P2;PMS_P1;PMS_P2;Temp;Humidity;BMP_temperature;BMP_pressure;BME280_temperature;BME280_humidity;BME280_pressure;Samples;Min_cycle;Max_cycle;Signal;HPM_P1;HPM_P2
2022/04/20 00:02:15;;;;;;;4.07;3.60;;;2.80;98.10;;;;;;5097857;27;20051;-70
2022/04/20 00:04:40;;;;;;;3.63;3.33;;;2.80;98.10;;;;;;5096882;28;20131;-70
2022/04/20 00:07:06;;;;;;;4.25;3.53;;;2.90;98.20;;;;;;5079482;28;20050;-70
2022/04/20 00:09:32;;;;;;;3.88;3.55;;;3.00;98.30;;;;;;5099528;28;20432;-70
2022/04/20 00:11:57;;;;;;;3.83;3.50;;;3.00;98.60;;;;;;5098373;28;20104;-70
2022/04/20 00:14:23;;;;;;;3.10;2.80;;;3.00;98.10;;;;;;5098394;28;20654;-70
2022/04/20 00:16:49;;;;;;;3.00;2.70;;;2.80;97.20;;;;;;5100049;27;20126;-70
2022/04/20 00:19:14;;;;;;;3.35;3.05;;;2.70;97.30;;;;;;5096140;27;20075;-70
2022/04/20 00:21:40;;;;;;;3.10;2.65;;;2.60;97.50;;;;;;5094694;28;20039;-70
2022/04/20 00:24:05;;;;;;;5.93;3.25;;;2.50;97.90;;;;;;5079435;28;20059;-71
2022/04/20 00:26:31;;;;;;;3.90;2.90;;;2.40;98.10;;;;;;5097395;28;20391;-71
2022/04/20 00:28:57;;;;;;;3.72;3.42;;;2.50;98.20;;;;;;5097422;27;20122;-71
2022/04/20 00:31:22;;;;;;;3.85;3.30;;;2.50;98.30;;;;;;5094043;27;20629;-71
2022/04/20 00:33:48;;;;;;;3.17;2.88;;;2.50;98.20;;;;;;5096979;28;20078;-71
2022/04/20 00:36:14;;;;;;;3.40;3.10;;;2.60;98.30;;;;;;5099375;28;20047;-70
2022/04/20 00:38:39;;;;;;;4.35;3.33;;;2.70;98.10;;;;;;5096979;28;20047;-71
2022/04/20 00:41:06;;;;;;;6.13;4.93;;;2.80;97.90;;;;;;5097136;28;20410;-71
2022/04/20 00:43:32;;;;;;;9.02;5.97;;;2.90;97.80;;;;;;5096949;27;20492;-71
2022/04/20 00:45:59;;;;;;;13.25;7.95;;;3.00;97.90;;;;;;5096904;28;20046;-70
2022/04/20 00:48:27;;;;;;;13.80;7.85;;;3.00;97.90;;;;;;5099136;28;20066;-70
2022/04/20 00:50:52;;;;;;;12.15;7.65;;;3.00;97.90;;;;;;5087834;28;20052;-70
2022/04/20 00:53:18;;;;;;;13.48;7.50;;;3.00;97.90;;;;;;5094990;28;20062;-71
2022/04/20 00:55:43;;;;;;;3.78;3.38;;;2.90;98.00;;;;;;5098382;28;20030;-70
2022/04/20 00:58:09;;;;;;;3.38;3.08;;;2.80;97.80;;;;;;5100740;28;20051;-70
2022/04/20 01:00:35;;;;;;;4.05;3.53;;;2.60;97.30;;;;;;5097080;28;20115;-70
2022/04/20 01:03:01;;;;;;;4.85;3.22;;;2.60;97.60;;;;;;5093809;28;20035;-70
2022/04/20 01:05:27;;;;;;;4.18;3.60;;;2.50;97.80;;;;;;5095817;28;20036;-70
2022/04/20 01:07:54;;;;;;;4.85;3.42;;;2.50;97.90;;;;;;5095742;28;20043;-70
2022/04/20 01:10:20;;;;;;;4.35;3.42;;;2.50;97.70;;;;;;5098760;28;20043;-70
2022/04/20 01:12:46;;;;;;;4.18;3.10;;;2.40;97.70;;;;;;5101486;27;20039;-70
2022/04/20 01:15:12;;;;;;;4.00;3.30;;;2.40;97.90;;;;;;5085947;27;20044;-70
2022/04/20 01:17:39;;;;;;;3.72;3.20;;;2.30;97.70;;;;;;5104206;27;20046;-70
2022/04/20 01:20:15;;;;;;;3.83;2.90;;;2.30;97.90;;;;;;5095386;27;20412;-71
2022/04/20 01:22:42;;;;;;;3.60;3.28;;;2.20;97.90;;;;;;5101728;27;20060;-71
2022/04/20 01:25:08;;;;;;;4.05;3.45;;;2.20;98.00;;;;;;5107424;27;20108;-70
2022/04/20 01:27:35;;;;;;;4.10;3.30;;;2.10;98.00;;;;;;5104626;27;20496;-70
2022/04/20 01:30:01;;;;;;;4.93;3.13;;;2.20;98.00;;;;;;5105409;27;20039;-70
2022/04/20 01:32:27;;;;;;;4.45;3.35;;;2.20;97.70;;;;;;5102669;27;20131;-70
2022/04/20 01:34:53;;;;;;;5.25;3.35;;;2.20;97.60;;;;;;5105093;27;20880;-70
2022/04/20 01:37:18;;;;;;;4.60;3.78;;;2.10;98.10;;;;;;5095714;27;20044;-70
2022/04/20 01:39:44;;;;;;;5.15;3.63;;;2.10;97.90;;;;;;5098365;27;20145;-70
2022/04/20 01:42:10;;;;;;;5.57;4.38;;;2.20;98.00;;;;;;5097618;27;20035;-71
2022/04/20 01:44:36;;;;;;;4.75;3.90;;;2.20;97.80;;;;;;5100148;27;20027;-70
2022/04/20 01:47:02;;;;;;;5.07;3.72;;;2.30;97.90;;;;;;5102187;27;20507;-70
2022/04/20 01:49:28;;;;;;;5.65;4.45;;;2.30;97.90;;;;;;5097627;27;20064;-70
2022/04/20 01:51:54;;;;;;;5.45;4.65;;;2.30;97.70;;;;;;5100102;27;20071;-70
2022/04/20 01:54:20;;;;;;;6.40;3.80;;;2.10;97.70;;;;;;5097826;27;20036;-70
2022/04/20 01:56:48;;;;;;;6.40;3.90;;;2.00;98.10;;;;;;5103418;27;20460;-70
2022/04/20 01:59:14;;;;;;;7.43;4.88;;;1.90;97.50;;;;;;5100466;27;20051;-70
2022/04/20 02:04:24;;;;;;;3.90;3.50;;;1.70;97.70;;;;;;5097999;27;20082;-70
2022/04/20 02:06:50;;;;;;;3.72;3.28;;;1.70;97.90;;;;;;5097195;27;20111;-70
2022/04/20 02:09:15;;;;;;;4.50;3.80;;;1.70;97.90;;;;;;5096338;27;20131;-70
2022/04/20 02:11:41;;;;;;;5.25;4.03;;;1.70;98.00;;;;;;5089998;27;20036;-70
2022/04/20 02:14:06;;;;;;;4.25;3.85;;;1.70;98.40;;;;;;5093566;27;20506;-70
2022/04/20 02:16:32;;;;;;;3.95;3.38;;;1.70;98.30;;;;;;5095188;27;21043;-70
2022/04/20 02:18:58;;;;;;;4.38;3.90;;;1.70;98.20;;;;;;5095042;27;20048;-71
2022/04/20 02:21:23;;;;;;;5.07;4.10;;;1.70;98.10;;;;;;5096134;27;20031;-71
2022/04/20 02:23:49;;;;;;;5.55;4.47;;;1.70;98.00;;;;;;5091694;27;20047;-70
2022/04/20 02:26:15;;;;;;;4.43;4.03;;;1.80;97.80;;;;;;5102656;28;20130;-70
2022/04/20 02:28:40;;;;;;;5.22;4.35;;;1.80;97.90;;;;;;5097554;28;20123;-70
2022/04/20 02:31:06;;;;;;;4.25;3.78;;;1.70;98.00;;;;;;5097843;27;20063;-70
2022/04/20 02:33:31;;;;;;;4.63;3.42;;;1.70;97.80;;;;;;5099332;28;20028;-70
2022/04/20 02:35:58;;;;;;;4.45;4.03;;;1.60;97.60;;;;;;5098976;27;20052;-70
2022/04/20 02:38:24;;;;;;;5.82;4.00;;;1.60;97.80;;;;;;5101217;28;20037;-70
2022/04/20 02:40:52;;;;;;;3.45;3.15;;;1.60;98.10;;;;;;5095399;27;20032;-71
2022/04/20 02:43:17;;;;;;;3.58;3.28;;;1.60;98.20;;;;;;5097118;27;20086;-71
2022/04/20 02:45:43;;;;;;;3.50;3.17;;;1.60;98.00;;;;;;5093813;27;20044;-70
2022/04/20 02:48:10;;;;;;;3.60;3.30;;;1.70;97.80;;;;;;5075558;28;20101;-70
2022/04/20 02:50:35;;;;;;;5.40;3.47;;;1.60;97.60;;;;;;5076146;28;20067;-70
2022/04/20 02:53:01;;;;;;;2.75;2.50;;;1.60;97.80;;;;;;5088194;27;20139;-70
2022/04/20 02:55:27;;;;;;;2.80;2.60;;;1.50;97.40;;;;;;5089812;27;20036;-70
2022/04/20 02:57:53;;;;;;;56.85;46.83;;;1.50;97.20;;;;;;5093165;28;20492;-71
2022/04/20 03:00:19;;;;;;;4.28;3.88;;;1.40;97.30;;;;;;5092925;27;20051;-70
2022/04/20 03:02:45;;;;;;;4.80;3.97;;;1.40;97.60;;;;;;5077268;28;20491;-70
2022/04/20 03:05:11;;;;;;;4.57;2.70;;;1.40;97.60;;;;;;5090328;27;20043;-70
2022/04/20 03:07:36;;;;;;;3.58;3.17;;;1.40;97.50;;;;;;5078457;28;20389;-70
2022/04/20 03:10:03;;;;;;;3.90;3.53;;;1.40;97.30;;;;;;5089627;28;20048;-70
2022/04/20 03:12:29;;;;;;;4.40;3.97;;;1.30;97.80;;;;;;5085046;27;20040;-70
2022/04/20 03:14:55;;;;;;;4.25;3.47;;;1.30;98.10;;;;;;5089695;27;20192;-70
2022/04/20 03:17:24;;;;;;;5.32;3.85;;;1.30;98.20;;;;;;5092614;27;20047;-70
2022/04/20 03:19:51;;;;;;;6.00;4.72;;;1.40;98.00;;;;;;5089073;27;20082;-70
2022/04/20 03:22:17;;;;;;;4.60;4.20;;;1.50;97.80;;;;;;5086483;27;20043;-71
2022/04/20 03:24:43;;;;;;;6.72;5.32;;;1.60;97.60;;;;;;5092210;28;20070;-70
2022/04/20 03:27:09;;;;;;;5.57;4.70;;;1.60;97.90;;;;;;5093388;28;20111;-70
2022/04/20 03:29:35;;;;;;;4.15;3.75;;;1.60;98.10;;;;;;5092581;27;20047;-70
2022/04/20 03:32:12;;;;;;;4.43;3.80;;;1.60;97.40;;;;;;5098051;27;20500;-71
2022/04/20 03:34:38;;;;;;;6.88;3.85;;;1.40;96.60;;;;;;5096957;27;20071;-70
2022/04/20 03:37:05;;;;;;;5.55;3.83;;;1.20;97.10;;;;;;5092922;27;20036;-70
2022/04/20 03:39:35;;;;;;;5.70;4.60;;;1.10;97.20;;;;;;5092128;28;20117;-70
2022/04/20 03:42:00;;;;;;;8.43;5.40;;;1.10;97.40;;;;;;5083840;28;20393;-70
2022/04/20 03:44:26;;;;;;;6.78;4.75;;;1.10;97.30;;;;;;5095287;28;20047;-70
2022/04/20 03:46:52;;;;;;;3.47;3.17;;;1.00;97.20;;;;;;5100045;27;20065;-70
2022/04/20 03:49:18;;;;;;;5.38;4.03;;;1.00;97.40;;;;;;5096922;27;20047;-70
2022/04/20 03:51:45;;;;;;;5.70;4.90;;;0.90;97.80;;;;;;5098759;28;20039;-70
2022/04/20 03:54:11;;;;;;;6.43;4.10;;;0.90;97.80;;;;;;5098718;28;20082;-70
2022/04/20 03:59:21;;;;;;;6.43;4.22;;;1.00;97.50;;;;;;5087186;27;20071;-70
2022/04/20 04:01:46;;;;;;;5.47;3.78;;;1.00;97.50;;;;;;5097135;27;20032;-70
2022/04/20 04:04:12;;;;;;;6.18;4.32;;;1.00;97.80;;;;;;5091646;27;20116;-70
2022/04/20 04:06:38;;;;;;;5.10;4.28;;;1.10;97.50;;;;;;5094181;28;20131;-70
2022/04/20 04:09:03;;;;;;;5.13;4.05;;;1.20;97.50;;;;;;5096756;28;20108;-70
2022/04/20 04:11:29;;;;;;;12.23;4.32;;;1.20;97.50;;;;;;5083148;28;20477;-70
2022/04/20 04:13:54;;;;;;;7.53;4.53;;;1.20;97.70;;;;;;5083423;28;20036;-70
2022/04/20 04:16:20;;;;;;;5.90;4.32;;;1.20;97.60;;;;;;5093129;28;20036;-70
2022/04/20 04:18:46;;;;;;;7.07;4.57;;;1.30;97.70;;;;;;5101620;28;20055;-70
2022/04/20 04:21:12;;;;;;;7.88;5.35;;;1.30;97.30;;;;;;5098995;28;20065;-70
2022/04/20 04:23:38;;;;;;;9.52;4.75;;;1.20;97.30;;;;;;5089803;28;20036;-70
2022/04/20 04:26:03;;;;;;;6.07;4.85;;;0.90;97.80;;;;;;5094353;28;20123;-69
2022/04/20 04:28:29;;;;;;;62.95;32.85;;;0.80;98.60;;;;;;5083943;28;20043;-69
2022/04/20 04:30:55;;;;;;;62.67;32.58;;;0.90;98.60;;;;;;5097971;28;20060;-69
2022/04/20 04:33:20;;;;;;;35.20;21.23;;;1.10;98.90;;;;;;5097206;28;20078;-69
2022/04/20 04:35:46;;;;;;;9.73;5.82;;;1.30;99.10;;;;;;5099466;28;20092;-69
2022/04/20 04:38:13;;;;;;;7.40;5.32;;;1.40;98.00;;;;;;5088892;27;20039;-69
2022/04/20 04:40:39;;;;;;;5.82;4.97;;;1.40;97.40;;;;;;5091701;28;20051;-69
2022/04/20 04:43:05;;;;;;;5.82;5.22;;;1.30;97.40;;;;;;5095219;27;20042;-69
2022/04/20 04:50:59;;;;;;;6.13;5.28;;;1.40;98.40;;;;;;5090795;27;20087;-69
2022/04/20 04:53:24;;;;;;;10.00;7.30;;;1.50;98.60;;;;;;5100120;28;20040;-69
2022/04/20 04:55:50;;;;;;;11.43;8.13;;;1.70;98.50;;;;;;5097565;28;20206;-67
2022/04/20 04:58:16;;;;;;;8.05;7.07;;;1.90;98.40;;;;;;5092637;28;20031;-69
2022/04/20 05:00:42;;;;;;;5.88;5.28;;;2.10;98.40;;;;;;5100206;28;20044;-69
2022/04/20 05:03:09;;;;;;;6.80;5.68;;;2.10;98.60;;;;;;5090269;28;20032;-70
2022/04/20 05:05:34;;;;;;;6.68;5.40;;;2.20;99.00;;;;;;5094536;28;20039;-69
2022/04/20 05:08:00;;;;;;;7.63;6.63;;;2.30;98.50;;;;;;5095042;28;20036;-69
2022/04/20 05:10:26;;;;;;;12.18;6.95;;;2.50;98.50;;;;;;5094546;28;20059;-68
2022/04/20 05:12:51;;;;;;;10.23;6.68;;;2.60;98.60;;;;;;5077902;28;20084;-69
2022/04/20 05:15:18;;;;;;;12.43;7.72;;;2.80;98.70;;;;;;5092708;28;20032;-69
2022/04/20 05:17:44;;;;;;;9.00;7.18;;;2.90;99.20;;;;;;5097106;28;20084;-69
2022/04/20 05:20:10;;;;;;;13.75;8.07;;;3.00;99.20;;;;;;5093138;28;20048;-69
2022/04/20 05:22:37;;;;;;;7.97;6.68;;;3.20;99.00;;;;;;5100042;28;20047;-69
2022/04/20 05:25:03;;;;;;;9.32;6.47;;;3.10;99.40;;;;;;5100146;28;20032;-69
2022/04/20 05:27:29;;;;;;;8.43;6.03;;;3.10;99.90;;;;;;5099157;28;20043;-70
2022/04/20 05:29:54;;;;;;;7.13;5.90;;;3.10;99.90;;;;;;5101521;28;20032;-69
2022/04/20 05:32:20;;;;;;;6.95;5.57;;;3.20;99.90;;;;;;5083493;28;20042;-70
2022/04/20 05:34:45;;;;;;;6.22;5.13;;;3.30;99.90;;;;;;5091815;28;20119;-70
2022/04/20 05:42:39;;;;;;;9.65;7.30;;;3.70;99.90;;;;;;5098499;28;20050;-71
2022/04/20 05:45:05;;;;;;;12.85;7.55;;;3.90;99.90;;;;;;5093035;28;20455;-71
2022/04/20 05:47:32;;;;;;;8.07;6.78;;;4.20;99.90;;;;;;5095316;28;20036;-70
2022/04/20 05:49:58;;;;;;;8.30;6.70;;;4.40;99.90;;;;;;5096793;28;20063;-70
2022/04/20 05:52:23;;;;;;;8.90;6.85;;;4.60;99.90;;;;;;5100434;28;20263;-70
2022/04/20 05:54:49;;;;;;;7.90;6.78;;;4.60;99.90;;;;;;5095752;28;20495;-71
2022/04/20 05:57:14;;;;;;;9.13;6.78;;;4.60;99.90;;;;;;5079484;28;20050;-71
2022/04/20 05:59:40;;;;;;;8.05;6.90;;;4.80;99.90;;;;;;5098481;27;20058;-69
2022/04/20 06:02:06;;;;;;;8.75;7.20;;;4.90;99.90;;;;;;5103644;27;20461;-70
2022/04/20 06:04:32;;;;;;;7.10;6.30;;;5.10;99.90;;;;;;5096597;27;20111;-70
2022/04/20 06:06:57;;;;;;;7.88;6.82;;;5.30;99.90;;;;;;5074940;28;20040;-70
2022/04/20 06:09:23;;;;;;;10.88;9.10;;;5.50;99.90;;;;;;5103162;27;20817;-68
2022/04/20 06:11:52;;;;;;;9.18;8.27;;;5.60;99.90;;;;;;5101101;27;20036;-69
2022/04/20 06:14:18;;;;;;;7.53;6.70;;;5.60;99.90;;;;;;5098708;27;20071;-69
2022/04/20 06:16:43;;;;;;;6.88;5.97;;;5.90;99.90;;;;;;5102364;28;20113;-69
2022/04/20 06:19:09;;;;;;;6.25;5.65;;;6.10;99.90;;;;;;5099193;28;20082;-69
2022/04/20 06:21:35;;;;;;;7.55;6.40;;;6.20;99.90;;;;;;5093858;27;20050;-70
2022/04/20 06:24:01;;;;;;;6.47;5.88;;;6.30;99.90;;;;;;5103128;27;20242;-69
2022/04/20 06:26:26;;;;;;;8.57;6.45;;;6.60;99.90;;;;;;5101628;28;20056;-68
2022/04/20 06:28:52;;;;;;;6.22;5.63;;;6.80;99.90;;;;;;5098757;27;20047;-67
2022/04/20 06:31:18;;;;;;;8.98;5.53;;;6.90;99.90;;;;;;5104986;28;20043;-67
2022/04/20 06:33:43;;;;;;;6.30;5.70;;;7.00;99.90;;;;;;5099358;28;20032;-67
2022/04/20 06:36:09;;;;;;;6.07;5.50;;;7.20;99.90;;;;;;5103332;28;20128;-67
2022/04/20 06:38:34;;;;;;;5.57;5.07;;;7.30;99.90;;;;;;5094396;27;20040;-67
2022/04/20 06:41:00;;;;;;;6.22;5.63;;;7.40;99.90;;;;;;5105619;27;20046;-66
2022/04/20 06:43:26;;;;;;;6.60;5.90;;;7.60;99.80;;;;;;5099970;28;20260;-67
2022/04/20 06:45:52;;;;;;;7.07;6.35;;;7.90;99.90;;;;;;5098652;28;20040;-67
2022/04/20 06:48:17;;;;;;;6.13;5.53;;;8.10;99.90;;;;;;5106122;27;20078;-67
2022/04/20 06:50:43;;;;;;;7.45;5.70;;;8.30;99.40;;;;;;5103003;28;20500;-68
2022/04/20 06:58:41;;;;;;;4.80;4.30;;;8.80;96.60;;;;;;5100752;28;20548;-67
2022/04/20 07:01:08;;;;;;;5.43;4.85;;;9.10;96.00;;;;;;5092080;27;20047;-67
2022/04/20 07:03:37;;;;;;;6.22;5.63;;;9.20;97.00;;;;;;5101578;27;20032;-67
2022/04/20 07:06:04;;;;;;;7.13;4.85;;;9.00;97.60;;;;;;5097925;27;20527;-67
2022/04/20 07:08:31;;;;;;;5.88;4.85;;;9.00;97.60;;;;;;5102466;28;20042;-67
2022/04/20 07:10:57;;;;;;;5.60;5.05;;;9.10;97.80;;;;;;5096426;28;20518;-66
2022/04/20 07:13:23;;;;;;;6.15;5.65;;;9.20;98.00;;;;;;5101196;28;20058;-67
2022/04/20 07:15:49;;;;;;;6.53;5.13;;;9.10;98.10;;;;;;5097419;28;20032;-67
2022/04/20 07:18:14;;;;;;;5.55;4.93;;;9.10;98.50;;;;;;5080183;28;20028;-68
2022/04/20 07:20:40;;;;;;;5.45;4.95;;;9.20;97.90;;;;;;5102434;27;20119;-68
2022/04/20 07:23:06;;;;;;;5.00;4.45;;;9.30;97.50;;;;;;5099324;28;20040;-68
2022/04/20 07:25:32;;;;;;;5.18;4.20;;;9.50;97.70;;;;;;5099481;27;20416;-67
2022/04/20 07:27:58;;;;;;;6.25;4.53;;;9.60;96.30;;;;;;5098590;28;20392;-67
2022/04/20 07:30:26;;;;;;;5.82;4.63;;;9.80;96.30;;;;;;5096580;28;20052;-67
2022/04/20 07:32:52;;;;;;;5.20;4.70;;;10.00;96.10;;;;;;5093743;27;20121;-67
2022/04/20 07:35:18;;;;;;;4.90;4.40;;;10.10;95.50;;;;;;5092930;28;20500;-68
2022/04/20 07:37:44;;;;;;;4.70;4.30;;;10.10;95.90;;;;;;5096066;27;20048;-68
2022/04/20 07:40:10;;;;;;;4.32;3.92;;;10.20;95.50;;;;;;5090154;28;20048;-67
2022/04/20 07:42:36;;;;;;;5.45;4.85;;;10.20;95.20;;;;;;5094654;27;20036;-67
2022/04/20 07:45:02;;;;;;;6.50;5.78;;;10.40;95.70;;;;;;5090854;27;20093;-67
2022/04/20 07:47:29;;;;;;;6.40;5.80;;;10.50;95.50;;;;;;5096450;27;20047;-68
2022/04/20 07:52:41;;;;;;;7.32;6.63;;;10.40;95.00;;;;;;5092267;28;20650;-67
2022/04/20 07:55:12;;;;;;;7.43;6.68;;;10.50;95.40;;;;;;5089575;27;20444;-67
2022/04/20 07:57:38;;;;;;;7.13;6.40;;;10.60;95.40;;;;;;5081959;27;20034;-67
2022/04/20 08:00:07;;;;;;;6.90;5.40;;;10.70;95.30;;;;;;5089665;27;20051;-67
2022/04/20 08:02:33;;;;;;;7.00;5.65;;;10.80;94.80;;;;;;5094956;27;20035;-67
2022/04/20 08:04:58;;;;;;;6.93;5.35;;;11.00;94.80;;;;;;5091036;27;20500;-67
2022/04/20 08:07:24;;;;;;;7.07;6.38;;;11.00;95.40;;;;;;5088727;28;20028;-67
2022/04/20 08:09:50;;;;;;;6.60;5.95;;;11.30;94.90;;;;;;5087078;28;20104;-67
2022/04/20 08:12:16;;;;;;;5.95;5.35;;;11.40;94.10;;;;;;5090299;28;20036;-68
2022/04/20 08:14:41;;;;;;;5.30;4.80;;;11.40;93.90;;;;;;5095198;27;20043;-67
2022/04/20 08:17:07;;;;;;;5.20;4.70;;;11.50;93.40;;;;;;5094459;27;20034;-67
2022/04/20 08:19:33;;;;;;;4.00;3.60;;;11.70;93.30;;;;;;5095042;28;20147;-67
2022/04/20 08:21:58;;;;;;;4.45;3.60;;;11.90;90.90;;;;;;5095807;28;20396;-68
2022/04/20 08:24:24;;;;;;;6.30;3.10;;;12.00;89.30;;;;;;5098835;28;20958;-68
2022/04/20 08:26:50;;;;;;;3.60;3.30;;;12.00;86.10;;;;;;5096430;28;20032;-68
2022/04/20 08:29:16;;;;;;;4.60;4.15;;;12.10;89.80;;;;;;5096898;28;20032;-68
2022/04/20 08:31:41;;;;;;;3.45;2.97;;;12.20;89.30;;;;;;5094560;28;20114;-68
2022/04/20 08:34:07;;;;;;;4.47;3.10;;;12.20;86.90;;;;;;5086376;27;20129;-68
2022/04/20 08:36:33;;;;;;;4.32;2.90;;;12.30;84.20;;;;;;5090203;28;20048;-68
2022/04/20 08:39:00;;;;;;;3.30;3.00;;;12.30;84.60;;;;;;5088384;27;20108;-68
2022/04/20 08:41:26;;;;;;;3.22;2.80;;;12.30;81.80;;;;;;5090635;27;20067;-68
2022/04/20 08:43:52;;;;;;;3.60;3.30;;;12.20;82.10;;;;;;5091963;27;20553;-68
2022/04/20 09:39:18;;;;;;;4.03;2.80;;;12.60;72.20;;;;;;5088296;27;20059;-68
2022/04/20 09:42:05;;;;;;;3.00;2.70;;;12.40;76.40;;;;;;5094807;27;20043;-68
2022/04/20 09:44:31;;;;;;;3.30;2.72;;;12.60;74.80;;;;;;5096143;28;20065;-68
2022/04/20 09:50:00;;;;;;;2.92;2.55;;;12.60;70.60;;;;;;5094932;27;20393;-68
2022/04/20 09:52:47;;;;;;;3.58;3.20;;;12.70;69.30;;;;;;5088401;27;20187;-68
2022/04/20 09:55:33;;;;;;;4.75;3.22;;;12.80;71.10;;;;;;5100387;27;20039;-68
2022/04/20 09:58:28;;;;;;;3.20;2.90;;;12.90;67.30;;;;;;5085057;27;20047;-68
2022/04/20 10:00:54;;;;;;;3.75;2.88;;;12.90;63.40;;;;;;5063906;28;20571;-68
2022/04/20 10:03:27;;;;;;;3.53;3.20;;;12.80;61.20;;;;;;5094795;28;20032;-68
2022/04/20 10:05:55;;;;;;;3.22;2.90;;;12.70;59.40;;;;;;5096914;27;20051;-68
2022/04/20 10:08:21;;;;;;;14.57;3.63;;;12.70;59.30;;;;;;5088620;27;20620;-66
2022/04/20 10:10:52;;;;;;;8.05;2.90;;;12.70;58.80;;;;;;5087334;28;20032;-68
2022/04/20 10:13:18;;;;;;;3.45;3.00;;;12.70;59.10;;;;;;5088614;27;20043;-68
2022/04/20 10:18:31;;;;;;;3.08;2.78;;;12.80;60.10;;;;;;5087166;27;20062;-71
2022/04/20 10:21:00;;;;;;;3.05;2.75;;;12.80;58.30;;;;;;5095615;28;20126;-71
2022/04/20 10:23:29;;;;;;;3.10;2.80;;;12.70;58.50;;;;;;5094426;28;20488;-71
2022/04/20 10:25:57;;;;;;;3.35;3.05;;;12.80;59.90;;;;;;5094092;28;20075;-71
2022/04/20 10:29:16;;;;;;;3.55;3.10;;;13.10;62.40;;;;;;5100983;27;20035;-71
2022/04/20 10:31:51;;;;;;;7.25;3.22;;;13.30;54.30;;;;;;5054831;27;20128;-68
2022/04/20 10:34:19;;;;;;;3.65;3.30;;;13.20;54.40;;;;;;5101245;28;20531;-69
2022/04/20 10:36:58;;;;;;;5.60;3.05;;;13.20;54.80;;;;;;5097972;28;20115;-68
2022/04/20 10:39:27;;;;;;;3.20;2.90;;;13.30;53.40;;;;;;5095362;27;20107;-69
2022/04/20 10:42:11;;;;;;;3.92;3.50;;;13.30;53.10;;;;;;5097734;27;20638;-69
2022/04/20 10:44:55;;;;;;;4.13;3.75;;;13.30;51.80;;;;;;5099290;28;20053;-69
2022/04/20 10:47:45;;;;;;;3.72;3.33;;;13.20;52.00;;;;;;5099442;27;20158;-68
2022/04/20 10:50:28;;;;;;;4.03;3.53;;;13.10;51.70;;;;;;5102447;27;20032;-69
2022/04/20 10:55:35;;;;;;;6.93;4.00;;;12.90;51.60;;;;;;5098076;28;20039;-69
2022/04/20 10:58:17;;;;;;;4.25;3.85;;;12.80;52.70;;;;;;5098343;28;20039;-69
2022/04/20 11:00:43;;;;;;;4.75;3.55;;;13.00;53.60;;;;;;5094041;28;20298;-69
2022/04/20 11:03:11;;;;;;;4.22;3.28;;;13.20;51.50;;;;;;5102269;27;20431;-68
2022/04/20 11:05:49;;;;;;;3.95;3.47;;;13.40;49.00;;;;;;5103671;27;20051;-68
2022/04/20 11:08:15;;;;;;;8.43;3.83;;;13.50;49.90;;;;;;5097107;27;20055;-67
2022/04/20 11:10:43;;;;;;;3.88;3.28;;;13.60;52.00;;;;;;5098175;27;20029;-68
2022/04/20 11:19:12;;;;;;;4.43;3.85;;;13.50;50.00;;;;;;5099683;28;20043;-68
2022/04/20 11:22:00;;;;;;;3.75;3.45;;;13.60;53.70;;;;;;5098379;28;20078;-68
2022/04/20 11:24:27;;;;;;;3.83;3.40;;;13.90;54.30;;;;;;5098840;28;20085;-69
2022/04/20 11:26:54;;;;;;;5.80;3.53;;;14.00;51.90;;;;;;5101715;27;20032;-71
2022/04/20 11:29:28;;;;;;;4.90;3.85;;;13.90;51.00;;;;;;5094477;27;20031;-69
2022/04/20 11:32:02;;;;;;;4.07;3.60;;;13.50;50.30;;;;;;5099982;27;20021;-69
2022/04/20 11:34:32;;;;;;;7.85;4.00;;;13.40;53.80;;;;;;5103254;28;20041;-69
2022/04/20 11:37:00;;;;;;;5.03;3.80;;;13.40;51.10;;;;;;5096519;28;20036;-68
2022/04/20 11:39:28;;;;;;;3.92;3.60;;;13.40;52.40;;;;;;5099436;28;20058;-69
2022/04/20 11:41:55;;;;;;;4.70;4.30;;;13.20;52.00;;;;;;5092298;28;20036;-69
2022/04/20 11:44:22;;;;;;;4.63;4.00;;;13.20;53.70;;;;;;5091130;27;20439;-69
2022/04/20 11:46:49;;;;;;;6.30;4.15;;;13.40;52.00;;;;;;5097006;28;20135;-68
2022/04/20 11:49:15;;;;;;;9.65;4.75;;;13.40;51.60;;;;;;5101805;28;20734;-68
2022/04/20 11:52:00;;;;;;;7.55;4.22;;;13.20;53.30;;;;;;5098545;27;20036;-69
2022/04/20 11:54:31;;;;;;;6.68;4.63;;;13.10;53.20;;;;;;5097391;28;20100;-68
2022/04/20 11:56:56;;;;;;;5.07;4.65;;;13.00;53.90;;;;;;5100866;28;20123;-69
2022/04/20 11:59:24;;;;;;;5.07;4.57;;;13.00;55.30;;;;;;5093210;27;20136;-69
2022/04/20 12:01:50;;;;;;;4.75;4.32;;;13.00;54.00;;;;;;5078505;28;20036;-69
2022/04/20 12:04:20;;;;;;;5.32;3.63;;;13.00;53.20;;;;;;5102122;27;20039;-68
2022/04/20 12:07:00;;;;;;;4.47;4.05;;;13.00;52.10;;;;;;5103121;28;20741;-69
2022/04/20 12:09:35;;;;;;;4.90;3.83;;;12.90;51.00;;;;;;5101616;28;20039;-69
2022/04/20 12:12:03;;;;;;;4.75;4.22;;;13.00;52.20;;;;;;5093444;28;20051;-69
2022/04/20 12:14:40;;;;;;;4.07;3.65;;;13.10;51.50;;;;;;5094633;28;20043;-70
2022/04/20 12:17:20;;;;;;;4.35;3.95;;;13.20;54.30;;;;;;5098942;28;20119;-70
2022/04/20 12:19:46;;;;;;;4.70;4.30;;;13.60;53.50;;;;;;5087695;28;20577;-70
2022/04/20 12:22:16;;;;;;;5.63;4.70;;;13.80;51.30;;;;;;5097369;28;20055;-72
2022/04/20 12:24:43;;;;;;;5.57;4.55;;;13.90;52.20;;;;;;5100951;28;20039;-72
2022/04/20 12:27:20;;;;;;;5.68;4.35;;;13.70;53.40;;;;;;5092790;28;20097;-72
2022/04/20 12:29:57;;;;;;;5.97;5.05;;;13.40;53.80;;;;;;5089654;27;20125;-70
2022/04/20 12:32:25;;;;;;;5.78;4.57;;;13.10;53.40;;;;;;5096326;28;20020;-71
2022/04/20 12:34:55;;;;;;;9.60;5.20;;;13.10;55.50;;;;;;5100456;28;20130;-71
2022/04/20 12:37:29;;;;;;;5.82;4.85;;;13.40;54.70;;;;;;5097666;28;20052;-70
2022/04/20 12:39:55;;;;;;;5.47;4.45;;;13.70;52.70;;;;;;5091516;28;20040;-70
2022/04/20 12:42:21;;;;;;;6.50;4.32;;;13.90;51.60;;;;;;5102221;28;20507;-70
2022/04/20 12:44:57;;;;;;;4.82;4.20;;;14.00;51.60;;;;;;5098037;28;20047;-70
2022/04/20 12:47:26;;;;;;;4.88;3.35;;;14.10;48.80;;;;;;5092481;27;20136;-70
2022/04/20 12:50:00;;;;;;;3.60;3.25;;;14.10;48.10;;;;;;5092859;28;20063;-70
2022/04/20 12:52:28;;;;;;;4.13;3.25;;;14.20;47.10;;;;;;5095713;28;20096;-69
2022/04/20 12:54:55;;;;;;;4.65;3.35;;;14.20;47.40;;;;;;5098769;28;20058;-69
2022/04/20 13:03:04;;;;;;;6.00;4.47;;;14.40;48.40;;;;;;5091204;28;20042;-70
2022/04/20 13:05:32;;;;;;;4.28;3.85;;;14.10;48.70;;;;;;5082170;28;20043;-70
2022/04/20 13:07:58;;;;;;;4.93;4.00;;;14.00;49.40;;;;;;5089534;28;20043;-70
2022/04/20 13:10:24;;;;;;;4.78;3.85;;;14.10;51.00;;;;;;5090807;28;20040;-69
2022/04/20 13:12:51;;;;;;;4.85;3.55;;;14.30;50.50;;;;;;5093817;28;20098;-69
2022/04/20 13:15:17;;;;;;;4.47;4.07;;;14.50;48.50;;;;;;5090280;28;20432;-69
2022/04/20 13:17:44;;;;;;;3.90;3.55;;;14.40;48.40;;;;;;5088453;28;20028;-69
2022/04/20 13:20:10;;;;;;;4.78;3.42;;;14.30;46.60;;;;;;5095224;28;20173;-71
2022/04/20 13:22:36;;;;;;;4.78;3.90;;;14.20;46.80;;;;;;5092936;27;20548;-70
2022/04/20 13:27:54;;;;;;;5.50;3.92;;;13.80;49.20;;;;;;5087850;28;20043;-70
2022/04/20 13:30:26;;;;;;;4.43;3.72;;;13.90;50.80;;;;;;5086876;28;20040;-70
2022/04/20 13:32:52;;;;;;;3.40;3.05;;;14.10;49.20;;;;;;5092203;28;20028;-70
2022/04/20 13:35:19;;;;;;;3.97;3.20;;;14.30;47.70;;;;;;5086206;28;20558;-70
2022/04/20 13:37:45;;;;;;;3.78;3.38;;;14.40;48.40;;;;;;5091172;28;20653;-69
2022/04/20 13:40:11;;;;;;;3.92;3.03;;;14.40;46.00;;;;;;5100771;28;20048;-70
2022/04/20 13:42:37;;;;;;;3.75;2.97;;;14.20;45.10;;;;;;5097430;28;20083;-69
2022/04/20 13:45:04;;;;;;;3.33;2.90;;;14.10;44.10;;;;;;5100726;28;20044;-69
2022/04/20 13:47:30;;;;;;;3.65;3.30;;;13.90;46.00;;;;;;5099417;28;20056;-69
2022/04/20 13:49:56;;;;;;;3.78;3.13;;;13.80;47.10;;;;;;5095583;28;20046;-69
2022/04/20 13:52:23;;;;;;;3.63;3.22;;;13.60;47.30;;;;;;5081038;28;20036;-68
2022/04/20 13:54:55;;;;;;;5.00;3.78;;;13.50;48.00;;;;;;5100178;28;20075;-69
2022/04/20 13:57:21;;;;;;;8.13;4.20;;;13.40;48.20;;;;;;5098176;28;20039;-71
2022/04/20 13:59:47;;;;;;;4.30;3.63;;;13.50;49.70;;;;;;5093265;28;20561;-71
2022/04/20 14:02:13;;;;;;;6.10;4.65;;;13.40;48.50;;;;;;5081816;28;20043;-69
2022/04/20 14:04:42;;;;;;;5.53;4.13;;;13.20;49.30;;;;;;5084904;28;20097;-69
2022/04/20 14:07:08;;;;;;;4.93;3.85;;;13.10;50.30;;;;;;5092845;28;20590;-69
2022/04/20 14:09:34;;;;;;;5.25;4.35;;;13.10;50.30;;;;;;5099101;28;20042;-68
2022/04/20 14:12:01;;;;;;;5.40;4.55;;;13.30;50.60;;;;;;5086398;28;20040;-69
2022/04/20 14:14:27;;;;;;;7.13;4.32;;;13.60;50.80;;;;;;5097532;28;20572;-70
2022/04/20 14:16:54;;;;;;;4.95;4.25;;;13.80;48.60;;;;;;5092589;28;20318;-70
2022/04/20 14:19:24;;;;;;;5.75;3.80;;;13.80;48.50;;;;;;5088772;28;20555;-70
2022/04/20 14:21:50;;;;;;;7.50;4.30;;;13.90;48.10;;;;;;5091896;27;20046;-69
2022/04/20 14:24:16;;;;;;;4.68;3.95;;;14.00;47.90;;;;;;5098098;27;20036;-69
2022/04/20 14:32:14;;;;;;;4.30;3.85;;;13.50;48.20;;;;;;5091464;27;20070;-69
2022/04/20 14:34:45;;;;;;;4.10;3.65;;;13.40;48.10;;;;;;5092233;27;20274;-69
2022/04/20 14:37:12;;;;;;;4.28;3.38;;;13.40;48.90;;;;;;5092883;27;20048;-68
2022/04/20 14:39:39;;;;;;;5.60;4.28;;;13.50;46.80;;;;;;5074628;27;20036;-68
2022/04/20 14:42:06;;;;;;;4.60;4.18;;;13.80;46.70;;;;;;5097247;27;20055;-68